createdAt,value
2022-08-03T00:00:24.130Z,2.97
2022-08-03T00:02:50.726Z,3.50
2022-08-03T00:05:17.259Z,2.50
2022-08-03T00:07:43.742Z,2.60
2022-08-03T00:10:12.585Z,2.58
2022-08-03T00:12:39.133Z,2.70
2022-08-03T00:15:11.122Z,2.80
2022-08-03T00:17:52.795Z,3.00
2022-08-03T00:20:24.061Z,3.20
2022-08-03T00:22:50.671Z,2.72
2022-08-03T00:25:17.917Z,3.13
2022-08-03T00:27:44.777Z,3.13
2022-08-03T00:30:11.445Z,3.25
2022-08-03T00:32:38.768Z,2.85
2022-08-03T00:35:18.239Z,3.17
2022-08-03T00:37:59.213Z,2.75
2022-08-03T00:40:28.953Z,2.72
2022-08-03T00:42:59.247Z,3.10
2022-08-03T00:45:30.714Z,3.00
2022-08-03T00:47:58.214Z,3.30
2022-08-03T00:50:27.043Z,3.45
2022-08-03T00:52:55.526Z,3.38
2022-08-03T00:55:22.418Z,3.13
2022-08-03T00:57:49.402Z,3.45
2022-08-03T01:00:20.313Z,3.38
2022-08-03T01:02:49.597Z,3.63
2022-08-03T01:05:16.226Z,3.92
2022-08-03T01:07:54.634Z,4.30
2022-08-03T01:10:45.496Z,3.30
2022-08-03T01:14:02.335Z,4.03
2022-08-03T01:16:37.278Z,3.67
2022-08-03T01:19:23.042Z,3.72
2022-08-03T01:21:59.534Z,3.90
2022-08-03T01:25:05.738Z,3.40
2022-08-03T01:27:56.714Z,3.78
2022-08-03T01:30:29.695Z,3.65
2022-08-03T01:33:03.375Z,3.50
2022-08-03T01:35:42.923Z,3.60
2022-08-03T01:38:18.041Z,3.78
2022-08-03T01:40:46.926Z,3.75
2022-08-03T01:43:55.298Z,3.55
2022-08-03T01:46:06.662Z,4.40
2022-08-03T01:48:34.460Z,3.65
2022-08-03T01:51:01.070Z,3.97
2022-08-03T01:53:28.490Z,3.60
2022-08-03T01:55:57.337Z,3.97
2022-08-03T01:58:25.073Z,3.85
2022-08-03T02:00:53.486Z,3.75
2022-08-03T02:03:23.151Z,4.18
2022-08-03T02:06:11.523Z,3.97
2022-08-03T02:08:41.775Z,4.07
2022-08-03T02:11:08.689Z,3.97
2022-08-03T02:13:35.517Z,4.05
2022-08-03T02:16:05.536Z,3.80
2022-08-03T02:18:33.255Z,3.97
2022-08-03T02:21:05.478Z,3.95
2022-08-03T02:23:38.823Z,3.80
2022-08-03T02:26:09.266Z,4.10
2022-08-03T02:28:39.305Z,3.95
2022-08-03T02:31:18.054Z,5.45
2022-08-03T02:33:51.082Z,4.10
2022-08-03T02:36:25.819Z,4.18
2022-08-03T02:38:56.789Z,4.03
2022-08-03T02:41:30.733Z,4.45
2022-08-03T02:44:06.023Z,4.95
2022-08-03T02:46:38.425Z,4.50
2022-08-03T02:49:40.623Z,4.05
2022-08-03T02:51:54.692Z,4.47
2022-08-03T02:54:23.513Z,4.25
2022-08-03T02:56:51.985Z,5.25
2022-08-03T02:59:19.959Z,4.63
2022-08-03T03:01:47.086Z,5.30
2022-08-03T03:04:14.858Z,5.00
2022-08-03T03:06:42.596Z,4.95
2022-08-03T03:09:11.688Z,4.90
2022-08-03T03:11:39.264Z,5.05
2022-08-03T03:14:07.370Z,5.28
2022-08-03T03:16:36.291Z,5.20
2022-08-03T03:19:03.168Z,5.28
2022-08-03T03:21:31.085Z,5.43
2022-08-03T03:23:59.292Z,6.28
2022-08-03T03:26:25.949Z,5.60
2022-08-03T03:28:52.589Z,5.55
2022-08-03T03:31:19.231Z,5.50
2022-08-03T03:33:46.501Z,4.70
2022-08-03T03:36:12.967Z,5.30
2022-08-03T03:38:39.658Z,4.97
2022-08-03T03:41:06.498Z,5.20
2022-08-03T03:43:33.385Z,5.45
2022-08-03T03:46:01.053Z,5.95
2022-08-03T03:48:28.056Z,5.80
2022-08-03T03:50:54.858Z,5.78
2022-08-03T03:53:21.375Z,6.20
2022-08-03T03:55:57.928Z,5.63
2022-08-03T03:58:28.957Z,6.97
2022-08-03T04:00:55.676Z,6.75
2022-08-03T04:03:22.248Z,6.25
2022-08-03T04:06:07.723Z,5.85
2022-08-03T04:08:52.491Z,5.55
2022-08-03T04:11:34.674Z,5.68
2022-08-03T04:14:09.342Z,6.77
2022-08-03T04:16:43.419Z,6.57
2022-08-03T04:19:23.431Z,6.65
2022-08-03T04:21:52.850Z,6.50
2022-08-03T04:24:20.885Z,6.32
2022-08-03T04:26:54.008Z,7.72
2022-08-03T04:29:22.276Z,5.93
2022-08-03T04:31:50.644Z,6.88
2022-08-03T04:34:17.501Z,6.25
2022-08-03T04:36:58.173Z,6.53
2022-08-03T04:39:26.709Z,7.20
2022-08-03T04:42:08.222Z,6.70
2022-08-03T04:44:41.588Z,7.13
2022-08-03T04:49:37.232Z,6.82
2022-08-03T04:52:05.293Z,8.00
2022-08-03T04:54:39.504Z,7.07
2022-08-03T04:57:06.023Z,8.27
2022-08-03T04:59:32.773Z,7.43
2022-08-03T05:01:59.351Z,7.53
2022-08-03T05:04:25.837Z,7.50
2022-08-03T05:06:55.235Z,6.70
2022-08-03T05:09:39.575Z,7.70
2022-08-03T05:12:09.724Z,7.28
2022-08-03T05:14:38.280Z,7.50
2022-08-03T05:17:05.806Z,7.60
2022-08-03T05:19:32.370Z,7.32
2022-08-03T05:21:59.012Z,6.43
2022-08-03T05:24:25.593Z,6.15
2022-08-03T05:26:52.029Z,6.65
2022-08-03T05:29:18.484Z,7.40
2022-08-03T05:31:44.934Z,6.82
2022-08-03T05:34:11.359Z,7.38
2022-08-03T05:36:37.909Z,7.43
2022-08-03T05:39:04.472Z,7.53
2022-08-03T05:41:37.252Z,8.10
2022-08-03T05:44:04.817Z,7.25
2022-08-03T05:46:31.626Z,6.97
2022-08-03T05:48:58.242Z,6.93
2022-08-03T05:51:24.937Z,8.05
2022-08-03T05:53:51.424Z,6.30
2022-08-03T05:56:22.107Z,6.65
2022-08-03T05:58:48.636Z,6.30
2022-08-03T06:01:16.826Z,6.50
2022-08-03T06:03:43.567Z,7.07
2022-08-03T06:06:11.397Z,8.43
2022-08-03T06:08:38.399Z,6.97
2022-08-03T06:11:04.889Z,6.40
2022-08-03T06:13:32.156Z,6.63
2022-08-03T06:15:58.688Z,7.03
2022-08-03T06:18:25.687Z,6.30
2022-08-03T06:20:53.141Z,6.30
2022-08-03T06:23:20.073Z,7.82
2022-08-03T06:25:47.510Z,5.55
2022-08-03T06:28:42.677Z,6.93
2022-08-03T06:31:01.579Z,6.95
2022-08-03T06:34:30.002Z,7.55
2022-08-03T06:36:15.134Z,7.20
2022-08-03T06:38:41.658Z,6.65
2022-08-03T06:41:08.170Z,6.60
2022-08-03T06:43:37.613Z,7.43
2022-08-03T06:46:05.437Z,7.75
2022-08-03T06:48:32.219Z,6.90
2022-08-03T06:50:59.152Z,6.82
2022-08-03T06:53:25.734Z,6.60
2022-08-03T06:55:55.053Z,7.20
2022-08-03T06:58:22.388Z,7.57
2022-08-03T07:00:49.158Z,7.22
2022-08-03T07:03:16.319Z,6.47
2022-08-03T07:05:43.499Z,7.88
2022-08-03T07:08:10.168Z,6.80
2022-08-03T07:10:37.011Z,7.20
2022-08-03T07:13:04.643Z,6.72
2022-08-03T07:15:53.793Z,7.00
2022-08-03T07:18:18.138Z,7.32
2022-08-03T07:20:56.795Z,6.72
2022-08-03T07:23:23.351Z,7.45
2022-08-03T07:25:50.740Z,7.07
2022-08-03T07:28:17.288Z,6.80
2022-08-03T07:30:43.785Z,7.13
2022-08-03T07:33:10.324Z,7.50
2022-08-03T07:35:36.982Z,7.10
2022-08-03T07:38:03.457Z,6.10
2022-08-03T07:40:31.791Z,6.53
2022-08-03T07:42:58.811Z,6.78
2022-08-03T07:45:26.535Z,5.38
2022-08-03T07:47:53.605Z,5.53
2022-08-03T07:50:21.042Z,6.68
2022-08-03T07:52:51.654Z,5.97
2022-08-03T07:55:20.380Z,6.35
2022-08-03T07:57:47.773Z,5.75
2022-08-03T08:00:19.444Z,6.03
2022-08-03T08:02:46.178Z,6.05
2022-08-03T08:05:12.707Z,6.47
2022-08-03T08:07:40.297Z,5.88
2022-08-03T08:10:09.844Z,6.28
2022-08-03T08:12:37.776Z,6.15
2022-08-03T08:15:04.994Z,6.03
2022-08-03T08:17:31.477Z,5.65
2022-08-03T08:19:58.025Z,5.93
2022-08-03T08:22:30.404Z,6.03
2022-08-03T08:27:25.738Z,5.93
2022-08-03T08:29:55.278Z,6.30
2022-08-03T08:32:24.151Z,6.38
2022-08-03T08:34:50.938Z,5.15
2022-08-03T08:37:17.479Z,5.95
2022-08-03T08:39:43.906Z,5.18
2022-08-03T08:42:10.454Z,5.70
2022-08-03T08:44:36.943Z,6.25
2022-08-03T08:47:04.351Z,5.68
2022-08-03T08:49:35.825Z,6.40
2022-08-03T08:52:04.013Z,5.82
2022-08-03T08:54:52.195Z,5.15
2022-08-03T08:57:40.807Z,5.10
2022-08-03T09:00:10.311Z,6.30
2022-08-03T09:02:37.375Z,4.68
2022-08-03T09:05:07.397Z,5.43
2022-08-03T09:07:34.549Z,5.47
2022-08-03T09:10:11.727Z,5.78
2022-08-03T09:12:43.173Z,5.75
2022-08-03T09:15:17.585Z,4.78
2022-08-03T09:17:47.657Z,5.20
2022-08-03T09:20:18.057Z,5.70
2022-08-03T09:22:54.727Z,4.90
2022-08-03T09:25:28.127Z,4.30
2022-08-03T09:27:54.785Z,5.43
2022-08-03T09:30:34.327Z,6.03
2022-08-03T09:33:21.922Z,4.85
2022-08-03T09:35:54.226Z,4.97
2022-08-03T09:38:27.182Z,4.53
2022-08-03T09:40:59.545Z,5.10
2022-08-03T09:43:46.788Z,4.32
2022-08-03T09:46:13.402Z,5.80
2022-08-03T09:48:39.826Z,5.32
2022-08-03T09:51:14.041Z,4.88
2022-08-03T09:53:59.663Z,4.43
2022-08-03T09:56:47.237Z,4.25
2022-08-03T09:59:23.183Z,4.85
2022-08-03T10:01:49.709Z,4.70
2022-08-03T10:04:19.011Z,4.68
2022-08-03T10:07:01.003Z,4.63
2022-08-03T10:09:27.649Z,4.85
2022-08-03T10:11:54.685Z,5.40
2022-08-03T10:14:22.483Z,4.57
2022-08-03T10:16:50.076Z,4.28
2022-08-03T10:19:17.567Z,4.97
2022-08-03T10:21:51.016Z,4.13
2022-08-03T10:24:24.271Z,4.45
2022-08-03T10:26:51.600Z,4.22
2022-08-03T10:29:22.562Z,4.00
2022-08-03T10:31:58.246Z,4.37
2022-08-03T10:34:35.358Z,4.65
2022-08-03T10:37:08.001Z,4.47
2022-08-03T10:39:35.953Z,4.22
2022-08-03T10:42:03.822Z,3.47
2022-08-03T10:44:39.861Z,4.43
2022-08-03T10:47:10.404Z,4.10
2022-08-03T10:49:37.960Z,3.67
2022-08-03T10:52:31.694Z,3.80
2022-08-03T10:55:10.873Z,4.22
2022-08-03T10:57:42.254Z,3.95
2022-08-03T11:00:16.379Z,4.05
2022-08-03T11:03:09.263Z,4.45
2022-08-03T11:05:39.078Z,4.15
2022-08-03T11:08:24.755Z,4.00
2022-08-03T11:10:53.901Z,3.65
2022-08-03T11:13:23.853Z,3.85
2022-08-03T11:15:53.506Z,3.58
2022-08-03T11:18:27.142Z,4.03
2022-08-03T11:20:58.643Z,3.58
2022-08-03T11:24:03.321Z,3.40
2022-08-03T11:26:32.850Z,3.63
2022-08-03T11:29:29.372Z,3.60
2022-08-03T11:31:56.115Z,3.83
2022-08-03T11:34:24.336Z,4.05
2022-08-03T11:37:21.014Z,5.10
2022-08-03T11:39:50.328Z,4.20
2022-08-03T11:42:22.882Z,4.10
2022-08-03T11:45:01.564Z,4.20
2022-08-03T11:47:32.338Z,4.03
2022-08-03T11:50:01.871Z,4.47
2022-08-03T11:52:35.762Z,4.68
2022-08-03T11:55:03.016Z,3.85
2022-08-03T11:59:17.035Z,4.20
2022-08-03T12:00:23.858Z,4.18
2022-08-03T12:05:34.761Z,4.22
2022-08-03T12:08:03.032Z,4.68
2022-08-03T12:10:31.440Z,4.75
2022-08-03T12:12:59.768Z,3.75
2022-08-03T12:15:28.156Z,4.50
2022-08-03T12:17:57.995Z,4.00
2022-08-03T12:20:34.480Z,4.05
2022-08-03T12:23:06.802Z,4.03
2022-08-03T12:28:36.585Z,4.18
2022-08-03T12:31:11.763Z,4.22
2022-08-03T12:34:04.915Z,4.20
2022-08-03T12:36:33.749Z,3.53
2022-08-03T12:39:03.155Z,3.50
2022-08-03T12:41:37.985Z,4.03
2022-08-03T12:44:08.948Z,3.88
2022-08-03T12:46:46.912Z,4.05
2022-08-03T12:49:17.032Z,3.90
2022-08-03T12:51:43.642Z,3.58
2022-08-03T12:54:17.295Z,4.15
2022-08-03T12:57:00.677Z,3.88
2022-08-03T12:59:32.509Z,3.17
2022-08-03T13:02:16.235Z,3.90
2022-08-03T13:04:45.802Z,3.10
2022-08-03T13:07:14.377Z,3.50
2022-08-03T13:10:03.692Z,3.45
2022-08-03T13:12:32.815Z,3.63
2022-08-03T13:15:00.575Z,3.05
2022-08-03T13:17:28.022Z,3.70
2022-08-03T13:19:54.567Z,3.30
2022-08-03T13:22:27.266Z,3.40
2022-08-03T13:24:58.322Z,3.30
2022-08-03T13:28:04.148Z,3.90
2022-08-03T13:30:12.960Z,3.58
2022-08-03T13:32:39.610Z,2.78
2022-08-03T13:35:07.510Z,3.38
2022-08-03T13:37:34.357Z,3.47
2022-08-03T13:40:02.438Z,3.42
2022-08-03T13:42:30.985Z,2.72
2022-08-03T13:44:57.818Z,3.30
2022-08-03T13:47:24.354Z,3.03
2022-08-03T13:49:59.631Z,3.33
2022-08-03T13:52:30.153Z,2.88
2022-08-03T13:54:56.706Z,3.15
2022-08-03T13:58:04.543Z,2.97
2022-08-03T14:00:10.517Z,2.85
2022-08-03T14:02:37.141Z,2.42
2022-08-03T14:05:03.907Z,2.80
2022-08-03T14:07:30.445Z,2.97
2022-08-03T14:09:57.017Z,2.30
2022-08-03T14:12:23.532Z,2.42
2022-08-03T14:14:50.063Z,2.38
2022-08-03T14:17:16.736Z,2.97
2022-08-03T14:19:52.478Z,2.20
2022-08-03T14:22:21.025Z,2.85
2022-08-03T14:24:47.517Z,2.25
2022-08-03T14:27:15.810Z,2.83
2022-08-03T14:29:42.280Z,3.05
2022-08-03T14:32:10.921Z,2.95
2022-08-03T14:34:38.813Z,3.33
2022-08-03T14:37:05.323Z,2.95
2022-08-03T14:39:58.262Z,3.03
2022-08-03T14:42:20.102Z,3.00
2022-08-03T14:44:46.682Z,3.05
2022-08-03T14:47:13.516Z,3.25
2022-08-03T14:50:36.288Z,2.70
2022-08-03T14:52:26.844Z,3.00
2022-08-03T14:54:53.385Z,3.10
2022-08-03T14:57:19.913Z,3.30
2022-08-03T14:59:55.874Z,3.40
2022-08-03T15:02:24.452Z,3.92
2022-08-03T15:04:51.378Z,3.67
2022-08-03T15:07:18.147Z,3.55
2022-08-03T15:09:44.943Z,3.50
2022-08-03T15:12:11.490Z,3.65
2022-08-03T15:14:40.276Z,3.70
2022-08-03T15:17:07.000Z,3.92
2022-08-03T15:20:03.403Z,3.85
2022-08-03T15:22:25.181Z,3.50
2022-08-03T15:25:01.959Z,3.67
2022-08-03T15:27:28.466Z,2.92
2022-08-03T15:30:05.427Z,3.03
2022-08-03T15:32:34.585Z,3.05
2022-08-03T15:35:01.634Z,3.22
2022-08-03T15:37:28.552Z,3.00
2022-08-03T15:39:59.203Z,3.55
2022-08-03T15:44:57.194Z,3.33
2022-08-03T15:47:23.613Z,3.10
2022-08-03T15:49:50.057Z,3.25
2022-08-03T15:52:16.552Z,4.03
2022-08-03T15:54:43.101Z,3.50
2022-08-03T15:57:09.559Z,3.25
2022-08-03T15:59:36.413Z,3.00
2022-08-03T16:02:03.563Z,3.20
2022-08-03T16:04:30.202Z,2.88
2022-08-03T16:06:56.695Z,2.83
2022-08-03T16:09:43.141Z,3.00
2022-08-03T16:12:11.741Z,2.60
2022-08-03T16:14:51.729Z,3.33
2022-08-03T16:17:19.479Z,2.70
2022-08-03T16:19:46.225Z,2.90
2022-08-03T16:22:14.372Z,2.63
2022-08-03T16:24:41.317Z,2.10
2022-08-03T16:27:37.522Z,2.13
2022-08-03T16:29:54.554Z,2.67
2022-08-03T16:32:21.060Z,2.50
2022-08-03T16:34:48.148Z,2.60
2022-08-03T16:37:37.644Z,2.38
2022-08-03T16:40:02.340Z,2.83
2022-08-03T16:42:29.315Z,2.75
2022-08-03T16:44:55.815Z,2.85
2022-08-03T16:47:22.917Z,2.33
2022-08-03T16:49:52.984Z,2.60
2022-08-03T16:52:23.142Z,2.60
2022-08-03T16:54:52.698Z,2.95
2022-08-03T16:57:58.400Z,2.15
2022-08-03T17:00:12.006Z,2.60
2022-08-03T17:02:48.016Z,2.30
2022-08-03T17:05:14.820Z,2.22
2022-08-03T17:07:41.463Z,2.50
2022-08-03T17:12:40.369Z,2.88
2022-08-03T17:15:10.739Z,3.58
2022-08-03T17:17:47.604Z,2.80
2022-08-03T17:20:29.763Z,2.70
2022-08-03T17:23:02.971Z,2.50
2022-08-03T17:25:39.927Z,2.50
2022-08-03T17:28:48.844Z,2.70
2022-08-03T17:31:31.843Z,2.40
2022-08-03T17:34:01.480Z,2.85
2022-08-03T17:36:47.604Z,2.72
2022-08-03T17:39:16.765Z,3.20
2022-08-03T17:44:42.832Z,2.78
2022-08-03T17:47:12.768Z,2.63
2022-08-03T17:49:46.140Z,2.90
2022-08-03T17:52:30.917Z,3.08
2022-08-03T17:55:57.138Z,3.08
2022-08-03T17:58:13.601Z,2.80
2022-08-03T18:01:04.298Z,3.33
2022-08-03T18:03:58.386Z,2.78
2022-08-03T18:06:30.888Z,3.28
2022-08-03T18:09:00.048Z,3.47
2022-08-03T18:11:37.275Z,3.65
2022-08-03T18:14:16.626Z,3.50
2022-08-03T18:17:05.476Z,3.22
2022-08-03T18:22:27.869Z,2.80
2022-08-03T18:24:58.946Z,3.33
2022-08-03T18:27:45.621Z,3.03
2022-08-03T18:30:14.403Z,2.90
2022-08-03T18:32:43.276Z,3.03
2022-08-03T18:38:18.889Z,2.80
2022-08-03T18:40:48.580Z,3.38
2022-08-03T18:43:17.466Z,2.88
2022-08-03T18:45:57.506Z,3.17
2022-08-03T18:48:51.865Z,3.08
2022-08-03T18:51:24.197Z,3.10
2022-08-03T18:54:12.076Z,3.00
2022-08-03T18:57:01.853Z,2.88
2022-08-03T18:59:38.209Z,2.65
2022-08-03T19:02:25.365Z,3.30
2022-08-03T19:04:54.379Z,2.80
2022-08-03T19:07:35.973Z,2.55
2022-08-03T19:12:58.605Z,3.17
2022-08-03T19:15:41.293Z,2.88
2022-08-03T19:18:21.887Z,2.97
2022-08-03T19:20:51.573Z,2.90
2022-08-03T19:23:25.146Z,2.70
2022-08-03T19:25:56.053Z,4.18
2022-08-03T19:28:29.609Z,4.50
2022-08-03T19:31:00.404Z,2.55
2022-08-03T19:33:33.205Z,3.00
2022-08-03T19:36:26.343Z,3.65
2022-08-03T19:38:57.808Z,3.28
2022-08-03T19:41:31.276Z,3.08
2022-08-03T19:44:12.909Z,2.63
2022-08-03T19:46:52.109Z,2.55
2022-08-03T19:49:19.981Z,2.90
2022-08-03T19:52:00.997Z,2.90
2022-08-03T19:54:45.424Z,2.80
2022-08-03T19:57:23.381Z,2.53
2022-08-03T19:59:52.446Z,2.83
2022-08-03T20:02:27.145Z,2.22
2022-08-03T20:04:56.967Z,3.08
2022-08-03T20:07:26.990Z,3.20
2022-08-03T20:09:56.528Z,2.80
2022-08-03T20:12:28.841Z,2.65
2022-08-03T20:14:59.168Z,2.95
2022-08-03T20:17:54.421Z,2.72
2022-08-03T20:20:19.460Z,2.80
2022-08-03T20:22:52.585Z,3.20
2022-08-03T20:25:26.567Z,3.03
2022-08-03T20:28:14.520Z,2.97
2022-08-03T20:30:44.068Z,2.78
2022-08-03T20:33:11.055Z,3.03
2022-08-03T20:35:37.926Z,3.97
2022-08-03T20:38:09.254Z,3.75
2022-08-03T20:40:36.482Z,3.83
2022-08-03T20:43:04.681Z,3.63
2022-08-03T20:46:01.206Z,3.60
2022-08-03T20:48:18.371Z,3.85
2022-08-03T20:50:49.425Z,3.35
2022-08-03T20:53:41.316Z,3.20
2022-08-03T20:56:08.425Z,3.33
2022-08-03T20:58:36.134Z,3.67
2022-08-03T21:01:03.182Z,5.78
2022-08-03T21:03:40.656Z,4.60
2022-08-03T21:06:27.548Z,3.65
2022-08-03T21:09:07.022Z,3.40
2022-08-03T21:11:42.738Z,3.33
2022-08-03T21:12:58.523Z,3.33
2022-08-03T21:13:04.251Z,2.67
2022-08-03T21:13:04.791Z,3.45
2022-08-03T21:13:08.689Z,2.97
2022-08-03T21:14:32.836Z,3.47
2022-08-03T21:17:03.595Z,3.40
2022-08-03T21:19:39.134Z,3.30
2022-08-03T21:22:22.891Z,3.45
2022-08-03T21:24:55.764Z,3.65
2022-08-03T21:27:23.816Z,3.20
2022-08-03T21:29:53.400Z,3.17
2022-08-03T21:32:32.685Z,3.70
2022-08-03T21:35:00.673Z,3.08
2022-08-03T21:37:28.314Z,3.67
2022-08-03T21:39:55.765Z,3.47
2022-08-03T21:42:25.846Z,2.97
2022-08-03T21:44:53.411Z,3.22
2022-08-03T21:47:22.717Z,3.40
2022-08-03T21:50:06.837Z,3.08
2022-08-03T21:52:40.862Z,3.13
2022-08-03T21:55:07.713Z,3.55
2022-08-03T21:57:38.377Z,3.45
2022-08-03T22:00:12.731Z,3.65
2022-08-03T22:02:42.820Z,3.80
2022-08-03T22:05:09.737Z,3.08
2022-08-03T22:07:43.301Z,3.22
2022-08-03T22:10:10.809Z,3.40
2022-08-03T22:12:37.405Z,3.53
2022-08-03T22:15:06.829Z,3.38
2022-08-03T22:17:54.824Z,3.42
2022-08-03T22:20:22.474Z,3.50
2022-08-03T22:22:55.019Z,4.10
2022-08-03T22:25:27.129Z,3.83
2022-08-03T22:27:54.256Z,3.85
2022-08-03T22:30:21.192Z,3.35
2022-08-03T22:32:52.651Z,4.15
2022-08-03T22:35:21.307Z,3.50
2022-08-03T22:37:53.740Z,4.00
2022-08-03T22:40:21.162Z,4.32
2022-08-03T22:42:49.520Z,4.47
2022-08-03T22:45:45.782Z,3.65
2022-08-03T22:48:08.135Z,4.07
2022-08-03T22:50:35.470Z,3.60
2022-08-03T22:53:02.017Z,3.90
2022-08-03T22:55:28.759Z,3.92
2022-08-03T22:57:55.911Z,4.05
2022-08-03T23:00:23.822Z,3.70
2022-08-03T23:02:51.866Z,4.05
2022-08-03T23:06:01.320Z,4.05
2022-08-03T23:08:14.955Z,4.47
2022-08-03T23:10:46.720Z,3.55
2022-08-03T23:13:16.890Z,3.75
2022-08-03T23:15:55.202Z,3.30
2022-08-03T23:18:23.635Z,4.13
2022-08-03T23:20:52.872Z,3.88
2022-08-03T23:23:20.559Z,4.10
2022-08-03T23:25:50.072Z,3.72
2022-08-03T23:28:17.896Z,4.43
2022-08-03T23:30:45.310Z,4.28
2022-08-03T23:33:14.754Z,4.57
2022-08-03T23:36:20.123Z,4.13
2022-08-03T23:41:12.530Z,4.47
2022-08-03T23:43:50.832Z,4.15
2022-08-03T23:46:21.101Z,4.40
2022-08-03T23:48:47.589Z,4.50
2022-08-03T23:51:23.468Z,4.60
2022-08-03T23:54:06.198Z,4.35
2022-08-03T23:56:59.892Z,4.72
2022-08-03T23:59:35.571Z,4.82
